createdAt,value
2022-09-01T00:01:53.672Z,100887.56
2022-09-01T00:04:27.304Z,100877.75
2022-09-01T00:06:57.164Z,100875.47
2022-09-01T00:09:25.690Z,100875.84
2022-09-01T00:11:56.046Z,100883.97
2022-09-01T00:14:31.227Z,100872.69
2022-09-01T00:17:00.668Z,100871.63
2022-09-01T00:19:30.488Z,100838.75
2022-09-01T00:22:01.511Z,100861.78
2022-09-01T00:24:30.520Z,100858.88
2022-09-01T00:26:58.907Z,100860.75
2022-09-01T00:29:27.948Z,100855.97
2022-09-01T00:31:56.304Z,100858.03
2022-09-01T00:34:24.891Z,100853.47
2022-09-01T00:36:53.201Z,100867.03
2022-09-01T00:39:23.236Z,100856.56
2022-09-01T00:41:51.807Z,100863.25
2022-09-01T00:44:24.703Z,100865.94
2022-09-01T00:46:55.908Z,100857.56
2022-09-01T00:49:31.428Z,100852.31
2022-09-01T00:52:05.693Z,100854.38
2022-09-01T00:54:40.106Z,100858.56
2022-09-01T00:57:12.823Z,100857.06
2022-09-01T00:59:48.109Z,100825.81
2022-09-01T01:02:16.920Z,100864.66
2022-09-01T01:04:46.384Z,100866.75
2022-09-01T01:07:17.388Z,100843.28
2022-09-01T01:09:48.555Z,100867.75
2022-09-01T01:12:19.005Z,100859.81
2022-09-01T01:14:50.592Z,100862.53
2022-09-01T01:17:20.732Z,100863.97
2022-09-01T01:20:09.224Z,100860.41
2022-09-01T01:23:08.528Z,100854.16
2022-09-01T01:25:42.318Z,100860.75
2022-09-01T01:28:15.701Z,100854.91
2022-09-01T01:30:51.218Z,100859.66
2022-09-01T01:33:20.384Z,100859.88
2022-09-01T01:35:50.731Z,100861.31
2022-09-01T01:38:20.898Z,100855.69
2022-09-01T01:40:53.994Z,100851.09
2022-09-01T01:43:25.213Z,100850.03
2022-09-01T01:45:56.840Z,100854.38
2022-09-01T01:48:34.757Z,100841.81
2022-09-01T01:51:04.668Z,100846.00
2022-09-01T01:53:34.387Z,100844.72
2022-09-01T01:56:06.300Z,100842.38
2022-09-01T01:58:37.208Z,100841.75
2022-09-01T02:01:13.240Z,100842.56
2022-09-01T02:03:42.119Z,100841.53
2022-09-01T02:06:12.384Z,100839.84
2022-09-01T02:08:43.907Z,100835.22
2022-09-01T02:11:17.401Z,100839.97
2022-09-01T02:13:47.060Z,100834.13
2022-09-01T02:16:16.998Z,100833.66
2022-09-01T02:18:48.711Z,100837.75
2022-09-01T02:21:20.350Z,100839.41
2022-09-01T02:23:50.368Z,100846.88
2022-09-01T02:26:22.950Z,100850.22
2022-09-01T02:28:55.150Z,100841.50
2022-09-01T02:31:29.056Z,100855.13
2022-09-01T02:34:01.278Z,100851.59
2022-09-01T02:36:32.987Z,100853.91
2022-09-01T02:39:02.535Z,100857.34
2022-09-01T02:41:34.605Z,100854.56
2022-09-01T02:44:05.919Z,100847.25
2022-09-01T02:46:37.990Z,100848.09
2022-09-01T02:49:08.831Z,100841.38
2022-09-01T02:51:37.482Z,100837.78
2022-09-01T02:54:06.472Z,100840.47
2022-09-01T02:56:36.815Z,100840.88
2022-09-01T02:59:13.185Z,100842.16
2022-09-01T03:01:41.933Z,100838.59
2022-09-01T03:04:12.767Z,100838.34
2022-09-01T03:06:41.961Z,100837.50
2022-09-01T03:09:14.792Z,100836.22
2022-09-01T03:11:46.868Z,100843.91
2022-09-01T03:14:15.877Z,100840.38
2022-09-01T03:16:44.644Z,100838.22
2022-09-01T03:19:13.453Z,100847.75
2022-09-01T03:21:46.155Z,100734.88
2022-09-01T03:24:19.728Z,100842.41
2022-09-01T03:26:52.542Z,100841.00
2022-09-01T03:29:21.600Z,100838.22
2022-09-01T03:31:50.561Z,100840.22
2022-09-01T03:34:23.690Z,100833.38
2022-09-01T03:36:54.553Z,100834.78
2022-09-01T03:39:28.043Z,100834.25
2022-09-01T03:41:58.998Z,100833.03
2022-09-01T03:44:28.348Z,100827.63
2022-09-01T03:46:58.520Z,100826.16
2022-09-01T03:49:28.731Z,100827.44
2022-09-01T03:51:58.825Z,100830.16
2022-09-01T03:54:30.779Z,100829.50
2022-09-01T03:57:00.780Z,100830.53
2022-09-01T03:59:30.639Z,100824.22
2022-09-01T04:01:59.985Z,100824.97
2022-09-01T04:04:29.491Z,100825.16
2022-09-01T04:06:57.788Z,100818.75
2022-09-01T04:09:26.171Z,100811.28
2022-09-01T04:11:55.855Z,100819.19
2022-09-01T04:14:29.284Z,100812.94
2022-09-01T04:17:16.575Z,100814.16
2022-09-01T04:19:45.023Z,100808.69
2022-09-01T04:22:14.543Z,100812.31
2022-09-01T04:24:46.807Z,100812.03
2022-09-01T04:27:18.813Z,100769.09
2022-09-01T04:29:48.744Z,100809.72
2022-09-01T04:32:21.450Z,100810.94
2022-09-01T04:34:53.496Z,100807.94
2022-09-01T04:37:23.732Z,100805.91
2022-09-01T04:39:57.623Z,100803.00
2022-09-01T04:42:29.889Z,100808.41
2022-09-01T04:45:09.940Z,100807.00
2022-09-01T04:47:43.022Z,100803.00
2022-09-01T04:50:17.882Z,100801.78
2022-09-01T04:53:07.253Z,100810.28
2022-09-01T04:55:46.268Z,100806.09
2022-09-01T04:58:19.959Z,100809.25
2022-09-01T05:00:53.152Z,100811.41
2022-09-01T05:03:24.386Z,100808.03
2022-09-01T05:06:00.364Z,100805.72
2022-09-01T05:08:29.262Z,100805.06
2022-09-01T05:11:08.080Z,100801.91
2022-09-01T05:13:42.507Z,100813.63
2022-09-01T05:16:15.233Z,100813.72
2022-09-01T05:18:49.036Z,100816.06
2022-09-01T05:21:22.611Z,100821.94
2022-09-01T05:23:51.939Z,100820.91
2022-09-01T05:26:24.042Z,100824.63
2022-09-01T05:28:56.320Z,100802.44
2022-09-01T05:31:28.655Z,100817.63
2022-09-01T05:33:58.337Z,100828.16
2022-09-01T05:36:26.893Z,100823.22
2022-09-01T05:38:57.175Z,100823.97
2022-09-01T05:41:25.904Z,100803.28
2022-09-01T05:43:59.962Z,100826.13
2022-09-01T05:46:31.152Z,100832.16
2022-09-01T05:49:00.215Z,100834.03
2022-09-01T05:51:50.371Z,100825.72
2022-09-01T05:54:27.504Z,100832.34
2022-09-01T05:57:12.730Z,100834.72
2022-09-01T05:59:53.922Z,100834.69
2022-09-01T06:02:27.370Z,100830.22
2022-09-01T06:04:59.958Z,100820.13
2022-09-01T06:07:34.004Z,100821.06
2022-09-01T06:10:04.471Z,100817.88
2022-09-01T06:12:34.146Z,100822.16
2022-09-01T06:15:03.364Z,100810.34
2022-09-01T06:17:36.699Z,100816.91
2022-09-01T06:20:10.783Z,100811.28
2022-09-01T06:22:42.200Z,100810.75
2022-09-01T06:25:11.810Z,100811.69
2022-09-01T06:27:44.972Z,100813.47
2022-09-01T06:30:20.140Z,100783.91
2022-09-01T06:33:02.367Z,100812.69
2022-09-01T06:35:33.085Z,100813.94
2022-09-01T06:38:02.120Z,100811.56
2022-09-01T06:40:51.130Z,100818.69
2022-09-01T06:43:23.939Z,100814.13
2022-09-01T06:45:54.610Z,100820.34
2022-09-01T06:48:26.484Z,100823.34
2022-09-01T06:51:20.978Z,100829.88
2022-09-01T06:53:59.503Z,100823.03
2022-09-01T06:56:42.834Z,100770.50
2022-09-01T06:59:15.703Z,100829.59
2022-09-01T07:05:04.424Z,100834.84
2022-09-01T07:13:36.623Z,100834.06
2022-09-01T07:16:35.411Z,100829.28
2022-09-01T07:19:06.734Z,100831.84
2022-09-01T07:21:40.778Z,100831.69
2022-09-01T07:24:13.127Z,100832.25
2022-09-01T07:26:54.413Z,100834.41
2022-09-01T07:29:25.870Z,100834.28
2022-09-01T07:34:47.755Z,100834.47
2022-09-01T07:43:19.019Z,100838.28
2022-09-01T07:49:30.699Z,100833.38
2022-09-01T07:51:53.230Z,100836.38
2022-09-01T07:54:25.388Z,100834.22
2022-09-01T07:56:54.855Z,100833.22
2022-09-01T07:59:24.090Z,100830.72
2022-09-01T08:02:04.641Z,100836.03
2022-09-01T08:04:34.229Z,100827.88
2022-09-01T08:07:03.232Z,100825.72
2022-09-01T08:09:38.028Z,100827.69
2022-09-01T08:12:09.803Z,100829.41
2022-09-01T08:14:47.116Z,100826.22
2022-09-01T08:17:33.091Z,100822.97
2022-09-01T08:20:09.529Z,100826.78
2022-09-01T08:23:01.689Z,100796.91
2022-09-01T08:25:48.865Z,100832.41
2022-09-01T08:28:29.058Z,100830.78
2022-09-01T08:31:00.208Z,100830.53
2022-09-01T08:33:29.580Z,100825.72
2022-09-01T08:35:57.886Z,100825.84
2022-09-01T08:38:28.137Z,100831.66
2022-09-01T08:41:00.945Z,100830.06
2022-09-01T08:43:49.417Z,100830.13
2022-09-01T08:46:24.650Z,100836.19
2022-09-01T08:49:24.228Z,100834.34
2022-09-01T08:52:25.532Z,100839.88
2022-09-01T08:55:01.672Z,100813.19
2022-09-01T08:57:36.202Z,100752.41
2022-09-01T09:00:24.969Z,100830.81
2022-09-01T09:03:08.602Z,100830.03
2022-09-01T09:05:49.032Z,100825.16
2022-09-01T09:08:49.840Z,100829.91
2022-09-01T09:11:36.019Z,100830.81
2022-09-01T09:14:12.526Z,100820.09
2022-09-01T09:16:43.922Z,100786.88
2022-09-01T09:19:18.220Z,100847.09
2022-09-01T09:21:48.202Z,100847.13
2022-09-01T09:24:25.460Z,100844.19
2022-09-01T09:26:58.935Z,100836.22
2022-09-01T09:29:29.952Z,100837.94
2022-09-01T09:32:06.162Z,100812.28
2022-09-01T09:34:37.735Z,100842.06
2022-09-01T09:37:22.092Z,100844.03
2022-09-01T09:40:15.243Z,100840.75
2022-09-01T09:43:03.430Z,100836.06
2022-09-01T09:45:35.173Z,100829.75
2022-09-01T09:48:10.891Z,100821.75
2022-09-01T09:50:43.315Z,100817.38
2022-09-01T09:53:28.492Z,100815.47
2022-09-01T09:56:01.282Z,100818.81
2022-09-01T09:58:37.629Z,100823.56
2022-09-01T10:01:17.801Z,100818.03
2022-09-01T10:03:50.569Z,100812.81
2022-09-01T10:06:34.598Z,100813.13
2022-09-01T10:09:05.684Z,100801.84
2022-09-01T10:11:40.927Z,100798.84
2022-09-01T10:14:35.273Z,100793.59
2022-09-01T10:17:09.784Z,100783.72
2022-09-01T10:19:42.156Z,100789.78
2022-09-01T10:22:15.197Z,100776.56
2022-09-01T10:24:45.990Z,100781.25
2022-09-01T10:27:21.838Z,100778.50
2022-09-01T10:32:54.983Z,100784.56
2022-09-01T10:35:27.618Z,100773.81
2022-09-01T10:37:59.130Z,100761.94
2022-09-01T10:40:50.036Z,100766.94
2022-09-01T10:43:38.489Z,100764.94
2022-09-01T10:46:41.863Z,100756.31
2022-09-01T10:49:25.228Z,100751.06
2022-09-01T10:51:57.047Z,100749.94
2022-09-01T10:54:56.027Z,100752.59
2022-09-01T10:57:46.403Z,100743.41
2022-09-01T11:04:01.335Z,100734.63
2022-09-01T11:07:17.169Z,100732.94
2022-09-01T11:10:32.075Z,100728.69
2022-09-01T11:13:33.096Z,100733.28
2022-09-01T11:19:31.153Z,100720.78
2022-09-01T11:22:15.482Z,100707.03
2022-09-01T11:25:12.065Z,100713.28
2022-09-01T11:28:02.185Z,100716.19
2022-09-01T11:30:52.049Z,100713.63
2022-09-01T11:33:33.888Z,100711.91
2022-09-01T11:36:05.025Z,100701.28
2022-09-01T11:38:50.641Z,100681.69
2022-09-01T11:41:24.640Z,100693.91
2022-09-01T11:43:58.026Z,100556.56
2022-09-01T11:46:32.717Z,100687.34
2022-09-01T11:49:07.565Z,100690.88
2022-09-01T11:51:47.515Z,100683.59
2022-09-01T11:54:17.642Z,100689.56
2022-09-01T11:56:45.851Z,100683.94
2022-09-01T11:59:14.080Z,100689.66
2022-09-01T12:01:42.533Z,100667.84
2022-09-01T12:04:33.661Z,100695.31
2022-09-01T12:07:04.497Z,100683.94
2022-09-01T12:09:43.005Z,100677.25
2022-09-01T12:12:30.708Z,100678.69
2022-09-01T12:15:05.625Z,100677.34
2022-09-01T12:17:35.116Z,100676.31
2022-09-01T12:20:31.880Z,100676.63
2022-09-01T12:23:02.577Z,100679.19
2022-09-01T12:25:35.399Z,100685.75
2022-09-01T12:28:06.173Z,100665.63
2022-09-01T12:30:39.584Z,100675.94
2022-09-01T12:33:26.239Z,100673.47
2022-09-01T12:36:17.015Z,100672.84
2022-09-01T12:38:45.301Z,100678.31
2022-09-01T12:41:35.134Z,100674.56
2022-09-01T12:44:30.525Z,100669.88
2022-09-01T12:47:00.637Z,100670.97
2022-09-01T12:49:45.120Z,100671.53
2022-09-01T12:52:25.463Z,100668.75
2022-09-01T12:55:07.164Z,100657.38
2022-09-01T12:57:39.568Z,100668.44
2022-09-01T13:00:18.285Z,100668.22
2022-09-01T13:02:48.512Z,100665.94
2022-09-01T13:05:30.228Z,100660.28
2022-09-01T13:08:02.932Z,100668.72
2022-09-01T13:10:38.151Z,100664.00
2022-09-01T13:13:10.545Z,100673.59
2022-09-01T13:15:40.571Z,100666.53
2022-09-01T13:18:08.751Z,100666.84
2022-09-01T13:20:37.603Z,100656.34
2022-09-01T13:23:05.837Z,100649.75
2022-09-01T13:25:34.064Z,100646.69
2022-09-01T13:28:02.694Z,100647.22
2022-09-01T13:30:32.423Z,100647.00
2022-09-01T13:35:49.524Z,100638.06
2022-09-01T13:38:18.173Z,100632.00
2022-09-01T13:40:47.634Z,100630.13
2022-09-01T13:43:16.952Z,100629.59
2022-09-01T13:45:47.390Z,100605.75
2022-09-01T13:48:17.040Z,100616.53
2022-09-01T13:53:37.948Z,100611.66
2022-09-01T13:56:06.570Z,100604.22
2022-09-01T13:58:34.815Z,100602.84
2022-09-01T14:01:05.228Z,100598.16
2022-09-01T14:03:33.655Z,100601.72
2022-09-01T14:06:02.273Z,100587.88
2022-09-01T14:08:31.495Z,100599.16
2022-09-01T14:11:00.196Z,100591.81
2022-09-01T14:13:30.164Z,100590.38
2022-09-01T14:15:59.072Z,100591.09
2022-09-01T14:18:36.906Z,100586.31
2022-09-01T14:21:05.494Z,100585.19
2022-09-01T14:23:33.760Z,100585.78
2022-09-01T14:26:02.048Z,100587.00
2022-09-01T14:28:30.294Z,100577.13
2022-09-01T14:33:27.434Z,100587.53
2022-09-01T14:35:57.204Z,100579.13
2022-09-01T14:38:25.383Z,100574.06
2022-09-01T14:40:53.812Z,100573.53
2022-09-01T14:43:22.601Z,100576.06
2022-09-01T14:45:50.874Z,100581.34
2022-09-01T14:48:20.831Z,100576.00
2022-09-01T14:50:51.114Z,100573.66
2022-09-01T14:53:24.080Z,100574.00
2022-09-01T14:55:55.632Z,100572.94
2022-09-01T14:58:26.620Z,100571.00
2022-09-01T15:01:03.557Z,100571.78
2022-09-01T15:03:35.791Z,100569.47
2022-09-01T15:06:04.149Z,100567.72
2022-09-01T15:08:33.824Z,100561.06
2022-09-01T15:11:02.615Z,100562.22
2022-09-01T15:13:30.893Z,100555.63
2022-09-01T15:15:59.740Z,100550.47
2022-09-01T15:18:27.960Z,100557.94
2022-09-01T15:20:56.346Z,100558.22
2022-09-01T15:23:26.284Z,100557.88
2022-09-01T15:25:57.948Z,100550.94
2022-09-01T15:28:26.597Z,100543.44
2022-09-01T15:30:57.074Z,100449.84
2022-09-01T15:33:25.368Z,100546.81
2022-09-01T15:35:53.815Z,100541.38
2022-09-01T15:38:28.371Z,100544.25
2022-09-01T15:41:00.486Z,100542.94
2022-09-01T15:43:29.470Z,100539.88
2022-09-01T15:45:59.346Z,100539.31
2022-09-01T15:48:28.415Z,100537.72
2022-09-01T15:51:26.814Z,100543.75
2022-09-01T15:53:57.847Z,100516.72
2022-09-01T15:56:28.240Z,100539.91
2022-09-01T15:59:01.620Z,100545.25
2022-09-01T16:01:33.374Z,100541.75
2022-09-01T16:04:02.628Z,100541.25
2022-09-01T16:06:31.744Z,100545.13
2022-09-01T16:09:00.282Z,100539.06
2022-09-01T16:11:30.000Z,100538.28
2022-09-01T16:13:58.697Z,100537.25
2022-09-01T16:16:42.770Z,100530.66
2022-09-01T16:19:22.838Z,100528.50
2022-09-01T16:21:59.161Z,100532.66
2022-09-01T16:24:28.349Z,100532.13
2022-09-01T16:26:58.566Z,100526.63
2022-09-01T16:29:44.990Z,100526.13
2022-09-01T16:32:14.340Z,100525.28
2022-09-01T16:34:47.149Z,100523.38
2022-09-01T16:37:27.209Z,100522.59
2022-09-01T16:40:05.783Z,100511.59
2022-09-01T16:42:46.978Z,100516.91
2022-09-01T16:45:21.767Z,100518.28
2022-09-01T16:48:02.698Z,100518.34
2022-09-01T16:50:41.587Z,100517.31
2022-09-01T16:53:19.058Z,100521.19
2022-09-01T16:55:58.943Z,100530.03
2022-09-01T16:58:41.508Z,100526.50
2022-09-01T17:01:24.683Z,100538.09
2022-09-01T17:04:10.003Z,100534.25
2022-09-01T17:06:49.196Z,100539.50
2022-09-01T17:09:23.229Z,100538.41
2022-09-01T17:11:54.917Z,100539.78
2022-09-01T17:14:37.159Z,100537.06
2022-09-01T17:17:11.000Z,100548.03
2022-09-01T17:19:41.897Z,100545.81
2022-09-01T17:22:13.875Z,100546.41
2022-09-01T17:24:44.396Z,100518.84
2022-09-01T17:27:19.847Z,100542.22
2022-09-01T17:29:53.384Z,100542.22
2022-09-01T17:32:48.349Z,100541.91
2022-09-01T17:35:26.121Z,100538.84
2022-09-01T17:38:06.494Z,100537.19
2022-09-01T17:40:50.545Z,100542.13
2022-09-01T17:43:26.873Z,100542.63
2022-09-01T17:46:04.898Z,100546.75
2022-09-01T17:48:51.029Z,100536.53
2022-09-01T17:51:28.502Z,100543.28
2022-09-01T17:54:09.653Z,100543.56
2022-09-01T17:56:45.735Z,100550.38
2022-09-01T17:59:22.578Z,100549.22
2022-09-01T18:02:04.088Z,100554.13
2022-09-01T18:04:57.200Z,100558.47
2022-09-01T18:07:41.505Z,100558.63
2022-09-01T18:10:15.512Z,100567.06
2022-09-01T18:12:46.684Z,100565.63
2022-09-01T18:15:18.099Z,100571.34
2022-09-01T18:17:51.816Z,100569.03
2022-09-01T18:20:25.893Z,100494.41
2022-09-01T18:23:02.466Z,100565.84
2022-09-01T18:25:39.160Z,100571.78
2022-09-01T18:28:09.271Z,100565.34
2022-09-01T18:30:54.160Z,100548.56
2022-09-01T18:33:30.449Z,100533.88
2022-09-01T18:36:23.712Z,100587.19
2022-09-01T18:39:00.302Z,100569.06
2022-09-01T18:41:54.113Z,100599.53
2022-09-01T18:44:37.388Z,100596.16
2022-09-01T18:47:11.225Z,100606.06
2022-09-01T18:49:53.767Z,100601.84
2022-09-01T18:52:50.939Z,100582.31
2022-09-01T18:55:25.915Z,100616.66
2022-09-01T18:57:58.837Z,100622.69
2022-09-01T19:00:36.973Z,100628.44
2022-09-01T19:03:17.034Z,100627.28
2022-09-01T19:06:13.216Z,100634.22
2022-09-01T19:08:55.333Z,100633.13
2022-09-01T19:11:34.333Z,100638.63
2022-09-01T19:14:12.161Z,100642.25
2022-09-01T19:16:56.072Z,100643.34
2022-09-01T19:19:40.394Z,100643.03
2022-09-01T19:22:12.048Z,100651.19
2022-09-01T19:24:48.258Z,100659.28
2022-09-01T19:27:22.376Z,100658.69
2022-09-01T19:29:56.257Z,100671.91
2022-09-01T19:32:32.037Z,100666.78
2022-09-01T19:35:07.966Z,100662.72
2022-09-01T19:37:37.857Z,100670.38
2022-09-01T19:40:08.599Z,100673.81
2022-09-01T19:42:44.579Z,100674.38
2022-09-01T19:45:18.897Z,100673.25
2022-09-01T19:47:52.701Z,100675.50
2022-09-01T19:50:24.835Z,100669.91
2022-09-01T19:53:00.738Z,100687.72
2022-09-01T19:55:34.185Z,100676.06
2022-09-01T19:58:08.587Z,100674.25
2022-09-01T20:00:51.161Z,100670.47
2022-09-01T20:03:23.548Z,100593.59
2022-09-01T20:05:58.336Z,100675.72
2022-09-01T20:08:36.041Z,100680.31
2022-09-01T20:11:10.264Z,100682.44
2022-09-01T20:14:03.419Z,100690.66
2022-09-01T20:16:35.487Z,100658.97
2022-09-01T20:19:10.560Z,100694.59
2022-09-01T20:21:43.504Z,100703.09
2022-09-01T20:24:21.068Z,100695.28
2022-09-01T20:27:00.234Z,100699.53
2022-09-01T20:29:35.109Z,100702.09
2022-09-01T20:32:05.410Z,100704.47
2022-09-01T20:34:40.032Z,100704.94
2022-09-01T20:37:19.455Z,100711.91
2022-09-01T20:40:01.086Z,100711.22
2022-09-01T20:42:38.465Z,100707.59
2022-09-01T20:45:13.429Z,100643.94
2022-09-01T20:47:42.985Z,100718.22
2022-09-01T20:50:14.636Z,100720.78
2022-09-01T20:52:56.825Z,100718.13
2022-09-01T20:55:33.897Z,100714.38
2022-09-01T20:58:11.245Z,100683.63
2022-09-01T21:00:49.726Z,100629.69
2022-09-01T21:03:33.968Z,100710.66
2022-09-01T21:06:09.543Z,100715.31
2022-09-01T21:08:45.140Z,100729.63
2022-09-01T21:11:32.436Z,100724.63
2022-09-01T21:14:13.868Z,100725.28
2022-09-01T21:16:53.192Z,100727.59
2022-09-01T21:19:33.036Z,100720.31
2022-09-01T21:22:06.477Z,100721.75
2022-09-01T21:24:35.401Z,100719.25
2022-09-01T21:27:09.527Z,100712.75
2022-09-01T21:29:56.082Z,100723.03
2022-09-01T21:32:24.453Z,100718.88
2022-09-01T21:34:54.163Z,100719.53
2022-09-01T21:37:23.892Z,100723.97
2022-09-01T21:39:54.180Z,100720.66
2022-09-01T21:42:31.604Z,100714.41
2022-09-01T21:45:01.763Z,100666.91
2022-09-01T21:47:30.626Z,100709.88
2022-09-01T21:49:59.088Z,100708.03
2022-09-01T21:52:27.823Z,100712.00
2022-09-01T21:54:56.086Z,100712.44
2022-09-01T21:57:25.748Z,100709.50
2022-09-01T21:59:54.087Z,100713.50
2022-09-01T22:02:22.489Z,100699.31
2022-09-01T22:04:57.704Z,100705.41
2022-09-01T22:07:25.985Z,100710.00
2022-09-01T22:09:57.943Z,100717.88
2022-09-01T22:12:28.455Z,100705.53
2022-09-01T22:14:57.057Z,100718.50
2022-09-01T22:17:27.228Z,100707.69
2022-09-01T22:19:55.560Z,100716.69
2022-09-01T22:22:23.845Z,100710.84
2022-09-01T22:24:52.240Z,100711.84
2022-09-01T22:27:21.293Z,100708.44
2022-09-01T22:29:52.344Z,100708.31
2022-09-01T22:32:23.261Z,100707.94
2022-09-01T22:34:52.892Z,100701.44
2022-09-01T22:37:21.369Z,100698.97
2022-09-01T22:39:49.900Z,100703.78
2022-09-01T22:42:18.252Z,100699.19
2022-09-01T22:44:46.742Z,100698.97
2022-09-01T22:47:17.479Z,100706.09
2022-09-01T22:49:46.045Z,100707.34
2022-09-01T22:52:14.760Z,100697.94
2022-09-01T22:54:43.389Z,100704.41
2022-09-01T22:57:11.925Z,100705.47
2022-09-01T22:59:42.492Z,100698.16
2022-09-01T23:02:11.634Z,100696.28
2022-09-01T23:04:43.565Z,100699.25
2022-09-01T23:07:11.953Z,100697.16
2022-09-01T23:09:40.913Z,100696.75
2022-09-01T23:12:09.416Z,100713.00
2022-09-01T23:14:37.771Z,100704.06
2022-09-01T23:17:06.186Z,100707.19
2022-09-01T23:19:34.409Z,100708.25
2022-09-01T23:22:04.334Z,100703.03
2022-09-01T23:24:32.805Z,100707.63
2022-09-01T23:27:01.127Z,100696.34
2022-09-01T23:29:29.479Z,100693.84
2022-09-01T23:31:58.936Z,100697.41
2022-09-01T23:34:27.237Z,100695.75
2022-09-01T23:36:55.581Z,100690.72
2022-09-01T23:39:25.413Z,100685.91
2022-09-01T23:41:54.229Z,100686.53
2022-09-01T23:44:23.691Z,100682.34
2022-09-01T23:46:52.000Z,100686.75
2022-09-01T23:49:20.800Z,100687.59
2022-09-01T23:51:49.473Z,100687.59
2022-09-01T23:54:18.781Z,100686.31
2022-09-01T23:56:49.161Z,100674.22
2022-09-01T23:59:17.773Z,100669.84
